Time,TemperatureF,DewpointF,PressureIn,WindDirection,WindDirectionDegrees,WindSpeedMPH,WindSpeedGustMPH,Humidity,HourlyPrecipIn,Conditions,Clouds,dailyrainin,SoftwareType,DateUTC
2013-01-25 01:22:00,59.0,54.0,30.27,NE,36,0.0,0.0,82,0.00,,,0.00,,2013-01-25 06:22:00,
2013-01-25 01:32:00,59.0,54.0,30.27,NNE,16,0.0,0.0,82,0.00,,,0.00,,2013-01-25 06:32:00,
2013-01-25 01:42:00,59.0,54.0,30.26,NNE,16,0.0,1.0,83,0.00,,,0.00,,2013-01-25 06:42:00,
2013-01-25 01:52:00,59.0,54.0,30.26,NNE,16,0.0,1.0,83,0.00,,,0.00,,2013-01-25 06:52:00,
2013-01-25 02:02:00,59.0,54.0,30.26,NNE,13,0.0,1.0,84,0.00,,,0.00,,2013-01-25 07:02:00,
2013-01-25 02:11:00,59.0,54.0,30.25,NNE,32,0.0,0.0,84,0.00,,,0.00,,2013-01-25 07:11:00,
2013-01-25 02:22:00,59.0,54.0,30.25,NNE,32,0.0,0.0,84,0.00,,,0.00,,2013-01-25 07:22:00,
2013-01-25 02:32:00,59.0,54.0,30.25,NNE,25,0.0,0.0,84,0.00,,,0.00,,2013-01-25 07:32:00,
2013-01-25 02:42:00,59.0,54.0,30.25,NNE,25,0.0,0.0,84,0.00,,,0.00,,2013-01-25 07:42:00,
2013-01-25 02:52:00,59.0,54.0,30.25,NNE,20,0.0,0.0,84,0.00,,,0.00,,2013-01-25 07:52:00,
2013-01-25 03:02:00,58.0,54.0,30.25,NNE,20,0.0,0.0,86,0.00,,,0.00,,2013-01-25 08:02:00,
2013-01-25 03:11:00,58.0,54.0,30.25,North,9,0.0,0.0,86,0.00,,,0.00,,2013-01-25 08:11:00,
2013-01-25 03:21:00,58.0,54.0,30.25,North,9,0.0,0.0,86,0.00,,,0.00,,2013-01-25 08:21:00,
2013-01-25 03:32:00,58.0,54.0,30.24,North,353,0.0,1.0,87,0.00,,,0.00,,2013-01-25 08:32:00,
2013-01-25 03:41:00,58.0,54.0,30.24,North,353,0.0,1.0,87,0.00,,,0.00,,2013-01-25 08:41:00,
2013-01-25 03:52:00,58.0,54.0,30.25,NNW,345,0.0,1.0,86,0.00,,,0.00,,2013-01-25 08:52:00,
2013-01-25 04:02:00,59.0,54.0,30.24,NNE,12,0.0,1.0,85,0.00,,,0.00,,2013-01-25 09:02:00,
2013-01-25 04:11:00,59.0,54.0,30.24,NNE,18,0.0,1.0,84,0.00,,,0.00,,2013-01-25 09:11:00,
2013-01-25 04:21:00,59.0,54.0,30.24,NNE,18,0.0,1.0,84,0.00,,,0.00,,2013-01-25 09:21:00,
2013-01-25 04:31:00,59.0,54.0,30.24,North,354,0.0,1.0,83,0.00,,,0.00,,2013-01-25 09:31:00,
2013-01-25 04:42:00,59.0,54.0,30.24,North,354,0.0,1.0,83,0.00,,,0.00,,2013-01-25 09:42:00,
2013-01-25 04:52:00,59.0,54.0,30.24,NNE,13,0.0,2.0,82,0.00,,,0.00,,2013-01-25 09:52:00,
2013-01-25 05:02:00,60.0,54.0,30.24,NNE,33,0.0,2.0,81,0.00,,,0.00,,2013-01-25 10:02:00,
2013-01-25 05:12:00,60.0,54.0,30.25,NNE,16,0.0,1.0,80,0.00,,,0.00,,2013-01-25 10:12:00,
2013-01-25 05:21:00,60.0,54.0,30.25,NNE,16,0.0,1.0,80,0.00,,,0.00,,2013-01-25 10:21:00,
2013-01-25 05:32:00,60.0,54.0,30.25,NNE,13,0.0,1.0,80,0.00,,,0.00,,2013-01-25 10:32:00,
2013-01-25 05:42:00,60.0,54.0,30.25,NNE,13,0.0,1.0,80,0.00,,,0.00,,2013-01-25 10:42:00,
2013-01-25 05:52:00,59.0,53.0,30.25,NNW,348,0.0,1.0,81,0.00,,,0.00,,2013-01-25 10:52:00,
2013-01-25 06:02:00,59.0,54.0,30.25,NNW,342,0.0,1.0,82,0.00,,,0.00,,2013-01-25 11:02:00,
2013-01-25 06:11:00,59.0,54.0,30.25,NNW,342,0.0,1.0,82,0.00,,,0.00,,2013-01-25 11:11:00,
2013-01-25 06:22:00,58.0,53.0,30.26,North,352,0.0,1.0,83,0.00,,,0.00,,2013-01-25 11:22:00,
2013-01-25 06:33:00,57.0,52.0,30.26,North,351,0.0,0.0,84,0.00,,,0.00,,2013-01-25 11:33:00,
2013-01-25 06:42:00,57.0,52.0,30.26,North,351,0.0,0.0,84,0.00,,,0.00,,2013-01-25 11:42:00,
2013-01-25 06:52:00,57.0,53.0,30.26,North,352,0.0,0.0,85,0.00,,,0.00,,2013-01-25 11:52:00,
2013-01-25 07:02:00,57.0,53.0,30.26,North,352,0.0,0.0,87,0.00,,,0.00,,2013-01-25 12:02:00,
2013-01-25 07:12:00,57.0,53.0,30.26,North,352,0.0,0.0,87,0.00,,,0.00,,2013-01-25 12:12:00,
2013-01-25 07:22:00,56.0,52.0,30.27,North,352,0.0,0.0,88,0.00,,,0.00,,2013-01-25 12:22:00,
2013-01-25 07:32:00,56.0,53.0,30.27,North,351,0.0,0.0,89,0.00,,,0.00,,2013-01-25 12:32:00,
2013-01-25 07:42:00,56.0,53.0,30.27,North,351,0.0,0.0,89,0.00,,,0.00,,2013-01-25 12:42:00,
2013-01-25 07:53:00,57.0,53.0,30.27,North,352,0.0,0.0,88,0.00,,,0.00,,2013-01-25 12:53:00,
2013-01-25 08:02:00,58.0,54.0,30.27,NNE,22,0.0,1.0,85,0.00,,,0.00,,2013-01-25 13:02:00,
2013-01-25 08:12:00,58.0,54.0,30.27,NNE,22,0.0,1.0,85,0.00,,,0.00,,2013-01-25 13:12:00,
2013-01-25 08:22:00,59.0,54.0,30.27,NE,48,0.0,1.0,82,0.00,,,0.00,,2013-01-25 13:22:00,
2013-01-25 08:32:00,61.0,54.0,30.28,NNE,27,0.0,2.0,78,0.00,,,0.00,,2013-01-25 13:32:00,
2013-01-25 08:42:00,61.0,54.0,30.28,NNE,27,0.0,2.0,78,0.00,,,0.00,,2013-01-25 13:42:00,
2013-01-25 08:53:00,63.0,55.0,30.28,North,9,0.0,3.0,74,0.00,,,0.00,,2013-01-25 13:53:00,
2013-01-25 09:03:00,64.0,54.0,30.29,NNE,33,2.0,5.0,70,0.00,,,0.00,,2013-01-25 14:03:00,
2013-01-25 09:12:00,64.0,54.0,30.29,NNE,33,2.0,5.0,70,0.00,,,0.00,,2013-01-25 14:12:00,
2013-01-25 09:23:00,65.0,54.0,30.29,ENE,77,0.0,2.0,68,0.00,,,0.00,,2013-01-25 14:23:00,
2013-01-25 09:33:00,66.0,55.0,30.29,ENE,65,2.0,5.0,67,0.00,,,0.00,,2013-01-25 14:33:00,
2013-01-25 09:42:00,66.0,55.0,30.29,ENE,65,2.0,5.0,67,0.00,,,0.00,,2013-01-25 14:42:00,
2013-01-25 09:53:00,67.0,55.0,30.30,East,79,1.0,3.0,66,0.00,,,0.00,,2013-01-25 14:53:00,
2013-01-25 10:02:00,69.0,55.0,30.30,NNE,27,3.0,6.0,62,0.00,,,0.00,,2013-01-25 15:02:00,
2013-01-25 10:12:00,69.0,55.0,30.30,NNE,27,3.0,6.0,62,0.00,,,0.00,,2013-01-25 15:12:00,
2013-01-25 10:22:00,70.0,55.0,30.30,NNE,19,1.0,5.0,60,0.00,,,0.00,,2013-01-25 15:22:00,
2013-01-25 10:32:00,71.0,55.0,30.30,NE,49,1.0,5.0,58,0.00,,,0.00,,2013-01-25 15:32:00,
2013-01-25 10:42:00,71.0,55.0,30.30,NE,49,1.0,5.0,58,0.00,,,0.00,,2013-01-25 15:42:00,
2013-01-25 10:53:00,73.0,57.0,30.30,NNW,347,1.0,4.0,57,0.00,,,0.00,,2013-01-25 15:53:00,
2013-01-25 11:03:00,73.0,57.0,30.30,North,349,0.0,5.0,58,0.00,,,0.00,,2013-01-25 16:03:00,
2013-01-25 11:12:00,73.0,57.0,30.30,North,349,0.0,5.0,58,0.00,,,0.00,,2013-01-25 16:12:00,
2013-01-25 11:23:00,74.0,57.0,30.29,NE,44,1.0,4.0,56,0.00,,,0.00,,2013-01-25 16:23:00,
2013-01-25 11:33:00,75.0,58.0,30.29,ENE,76,1.0,3.0,56,0.00,,,0.00,,2013-01-25 16:33:00,
2013-01-25 11:43:00,75.0,58.0,30.29,ENE,76,1.0,3.0,56,0.00,,,0.00,,2013-01-25 16:43:00,
2013-01-25 11:53:00,76.0,59.0,30.28,NE,46,2.0,6.0,56,0.00,,,0.00,,2013-01-25 16:53:00,
2013-01-25 12:02:00,76.0,58.0,30.27,ESE,106,3.0,9.0,54,0.00,,,0.00,,2013-01-25 17:02:00,
2013-01-25 12:12:00,76.0,58.0,30.27,ESE,106,3.0,9.0,54,0.00,,,0.00,,2013-01-25 17:12:00,
2013-01-25 12:22:00,78.0,58.0,30.27,ESE,106,2.0,7.0,51,0.00,,,0.00,,2013-01-25 17:22:00,
2013-01-25 12:33:00,77.0,57.0,30.26,East,82,5.0,10.0,51,0.00,,,0.00,,2013-01-25 17:33:00,
2013-01-25 12:43:00,77.0,57.0,30.26,East,82,5.0,10.0,51,0.00,,,0.00,,2013-01-25 17:43:00,
2013-01-25 12:53:00,77.0,58.0,30.26,East,81,4.0,8.0,52,0.00,,,0.00,,2013-01-25 17:53:00,
2013-01-25 13:03:00,77.0,58.0,30.25,ESE,119,2.0,6.0,52,0.00,,,0.00,,2013-01-25 18:03:00,
2013-01-25 13:12:00,77.0,58.0,30.25,ESE,119,2.0,6.0,52,0.00,,,0.00,,2013-01-25 18:12:00,
2013-01-25 13:23:00,75.0,56.0,30.24,East,95,2.0,9.0,51,0.00,,,0.00,,2013-01-25 18:23:00,
2013-01-25 13:33:00,77.0,56.0,30.23,East,88,4.0,10.0,49,0.00,,,0.00,,2013-01-25 18:33:00,
2013-01-25 13:42:00,77.0,56.0,30.23,East,88,4.0,10.0,49,0.00,,,0.00,,2013-01-25 18:42:00,
2013-01-25 13:52:00,78.0,57.0,30.22,ENE,73,3.0,9.0,48,0.00,,,0.00,,2013-01-25 18:52:00,
2013-01-25 14:03:00,77.0,57.0,30.22,ENE,70,3.0,10.0,51,0.00,,,0.00,,2013-01-25 19:03:00,
2013-01-25 14:12:00,77.0,57.0,30.22,ENE,70,3.0,10.0,51,0.00,,,0.00,,2013-01-25 19:12:00,
2013-01-25 14:22:00,77.0,58.0,30.22,ESE,112,1.0,6.0,52,0.00,,,0.00,,2013-01-25 19:22:00,
2013-01-25 14:32:00,77.0,57.0,30.21,ESE,105,0.0,7.0,51,0.00,,,0.00,,2013-01-25 19:32:00,
2013-01-25 14:42:00,77.0,57.0,30.21,ESE,105,0.0,7.0,51,0.00,,,0.00,,2013-01-25 19:42:00,
2013-01-25 14:53:00,77.0,55.0,30.21,East,91,3.0,6.0,47,0.00,,,0.00,,2013-01-25 19:53:00,
2013-01-25 15:03:00,78.0,57.0,30.20,East,87,2.0,7.0,49,0.00,,,0.00,,2013-01-25 20:03:00,
2013-01-25 15:12:00,78.0,57.0,30.20,East,87,2.0,7.0,49,0.00,,,0.00,,2013-01-25 20:12:00,
2013-01-25 15:23:00,77.0,57.0,30.20,East,101,1.0,5.0,50,0.00,,,0.00,,2013-01-25 20:23:00,
2013-01-25 15:32:00,77.0,57.0,30.20,East,89,3.0,7.0,51,0.00,,,0.00,,2013-01-25 20:32:00,
2013-01-25 15:42:00,77.0,57.0,30.20,East,89,3.0,7.0,51,0.00,,,0.00,,2013-01-25 20:42:00,
2013-01-25 15:53:00,77.0,58.0,30.19,NE,39,1.0,5.0,52,0.00,,,0.00,,2013-01-25 20:53:00,
2013-01-25 16:02:00,77.0,56.0,30.19,ESE,109,1.0,7.0,48,0.00,,,0.00,,2013-01-25 21:02:00,
2013-01-25 16:12:00,77.0,56.0,30.19,ESE,109,1.0,7.0,48,0.00,,,0.00,,2013-01-25 21:12:00,
2013-01-25 16:23:00,77.0,56.0,30.19,NNE,23,2.0,8.0,48,0.00,,,0.00,,2013-01-25 21:23:00,
2013-01-25 16:33:00,77.0,57.0,30.19,East,98,3.0,7.0,50,0.00,,,0.00,,2013-01-25 21:33:00,
2013-01-25 16:42:00,77.0,57.0,30.19,East,98,3.0,7.0,50,0.00,,,0.00,,2013-01-25 21:42:00,
2013-01-25 16:52:00,78.0,58.0,30.20,SSE,151,3.0,6.0,51,0.00,,,0.00,,2013-01-25 21:52:00,
2013-01-25 17:03:00,77.0,58.0,30.20,ENE,77,1.0,5.0,52,0.00,,,0.00,,2013-01-25 22:03:00,
2013-01-25 17:12:00,77.0,58.0,30.20,ENE,77,1.0,5.0,52,0.00,,,0.00,,2013-01-25 22:12:00,
2013-01-25 17:22:00,77.0,59.0,30.20,East,96,1.0,4.0,53,0.00,,,0.00,,2013-01-25 22:22:00,
2013-01-25 17:33:00,76.0,59.0,30.21,ENE,69,1.0,2.0,55,0.00,,,0.00,,2013-01-25 22:33:00,
2013-01-25 17:42:00,76.0,59.0,30.21,ENE,69,1.0,2.0,55,0.00,,,0.00,,2013-01-25 22:42:00,
2013-01-25 17:53:00,75.0,59.0,30.21,ESE,104,1.0,3.0,57,0.00,,,0.00,,2013-01-25 22:53:00,
2013-01-25 18:02:00,74.0,60.0,30.21,East,89,0.0,3.0,61,0.00,,,0.00,,2013-01-25 23:02:00,
2013-01-25 18:12:00,74.0,60.0,30.21,East,89,0.0,3.0,61,0.00,,,0.00,,2013-01-25 23:12:00,
2013-01-25 18:22:00,72.0,59.0,30.22,East,85,0.0,2.0,64,0.00,,,0.00,,2013-01-25 23:22:00,
2013-01-25 18:32:00,71.0,58.0,30.22,East,99,0.0,2.0,64,0.00,,,0.00,,2013-01-25 23:32:00,
2013-01-25 18:42:00,71.0,58.0,30.22,East,99,0.0,2.0,64,0.00,,,0.00,,2013-01-25 23:42:00,
2013-01-25 18:53:00,70.0,59.0,30.22,East,97,0.0,1.0,68,0.00,,,0.00,,2013-01-25 23:53:00,
2013-01-25 19:02:00,69.0,59.0,30.22,East,98,0.0,0.0,70,0.00,,,0.00,,2013-01-26 00:02:00,
2013-01-25 19:12:00,69.0,59.0,30.22,East,98,0.0,0.0,70,0.00,,,0.00,,2013-01-26 00:12:00,
2013-01-25 19:22:00,68.0,59.0,30.22,East,97,0.0,0.0,72,0.00,,,0.00,,2013-01-26 00:22:00,
2013-01-25 19:32:00,67.0,58.0,30.22,East,97,0.0,0.0,74,0.00,,,0.00,,2013-01-26 00:32:00,
2013-01-25 19:42:00,67.0,58.0,30.22,East,97,0.0,0.0,74,0.00,,,0.00,,2013-01-26 00:42:00,
2013-01-25 19:53:00,67.0,59.0,30.22,East,97,0.0,0.0,76,0.00,,,0.00,,2013-01-26 00:53:00,
2013-01-25 20:02:00,66.0,59.0,30.22,East,97,0.0,0.0,77,0.00,,,0.00,,2013-01-26 01:02:00,
2013-01-25 20:11:00,66.0,59.0,30.22,East,97,0.0,0.0,77,0.00,,,0.00,,2013-01-26 01:11:00,
2013-01-25 20:22:00,65.0,59.0,30.22,East,97,0.0,0.0,81,0.00,,,0.00,,2013-01-26 01:22:00,
2013-01-25 20:32:00,64.0,58.0,30.22,East,97,0.0,0.0,82,0.00,,,0.00,,2013-01-26 01:32:00,
2013-01-25 20:42:00,64.0,58.0,30.22,East,97,0.0,0.0,82,0.00,,,0.00,,2013-01-26 01:42:00,
2013-01-25 20:52:00,64.0,59.0,30.22,East,97,0.0,0.0,83,0.00,,,0.00,,2013-01-26 01:52:00,
2013-01-25 21:01:00,64.0,59.0,30.23,East,97,0.0,0.0,84,0.00,,,0.00,,2013-01-26 02:01:00,
2013-01-25 21:11:00,64.0,59.0,30.23,East,97,0.0,0.0,84,0.00,,,0.00,,2013-01-26 02:11:00,
2013-01-25 21:22:00,64.0,59.0,30.23,East,97,0.0,0.0,84,0.00,,,0.00,,2013-01-26 02:22:00,
2013-01-25 21:32:00,63.0,58.0,30.23,East,97,0.0,0.0,85,0.00,,,0.00,,2013-01-26 02:32:00,
2013-01-25 21:42:00,63.0,58.0,30.23,East,97,0.0,0.0,85,0.00,,,0.00,,2013-01-26 02:42:00,
2013-01-25 21:52:00,63.0,59.0,30.23,East,98,0.0,0.0,87,0.00,,,0.00,,2013-01-26 02:52:00,
2013-01-25 22:02:00,63.0,59.0,30.23,East,97,0.0,0.0,86,0.00,,,0.00,,2013-01-26 03:02:00,
2013-01-25 22:11:00,63.0,59.0,30.23,East,97,0.0,0.0,86,0.00,,,0.00,,2013-01-26 03:11:00,
2013-01-25 22:22:00,63.0,59.0,30.23,East,97,0.0,0.0,88,0.00,,,0.00,,2013-01-26 03:22:00,
2013-01-25 22:32:00,62.0,59.0,30.23,East,97,0.0,0.0,90,0.00,,,0.00,,2013-01-26 03:32:00,
2013-01-25 22:43:00,62.0,59.0,30.23,East,97,0.0,0.0,90,0.00,,,0.00,,2013-01-26 03:43:00,
2013-01-25 22:52:00,62.0,59.0,30.23,East,97,0.0,0.0,90,0.00,,,0.00,,2013-01-26 03:52:00,
2013-01-25 23:02:00,63.0,60.0,30.24,East,97,0.0,0.0,91,0.00,,,0.00,,2013-01-26 04:02:00,
2013-01-25 23:12:00,63.0,60.0,30.24,East,97,0.0,0.0,91,0.00,,,0.00,,2013-01-26 04:12:00,
2013-01-25 23:21:00,62.0,59.0,30.24,East,97,0.0,0.0,91,0.00,,,0.00,,2013-01-26 04:21:00,
2013-01-25 23:32:00,62.0,59.0,30.23,East,97,0.0,0.0,91,0.00,,,0.00,,2013-01-26 04:32:00,
2013-01-25 23:42:00,62.0,59.0,30.23,East,97,0.0,0.0,91,0.00,,,0.00,,2013-01-26 04:42:00,
2013-01-25 23:52:00,62.0,60.0,30.24,East,98,0.0,0.0,92,0.00,,,0.00,,2013-01-26 04:52:00,